Terminal Aerodrome Forecast
Issued by NWS

Home | Current Version | Previous Version | Text Only | Print | Product List | Glossary On
Versions: 1 2 3 4 5 6 7 8 9 10 11 12 13 14 15 16 17 18 19 20 21 22 23 24 25 26
000
FTUS45 KREV 290520
TAFTVL
TAF
KTVL 290520Z 2906/3006 VRB03KT P6SM SCT200
     FM292200 03006KT P6SM SCT070 BKN140
     FM300200 20010G18KT P6SM BKN060 BKN120=

USA.gov is the U.S. government's official web portal to all federal, state and local government web resources and services.